Time,TemperatureF,DewpointF,PressureIn,WindDirection,WindDirectionDegrees,WindSpeedMPH,WindSpeedGustMPH,Humidity,HourlyPrecipIn,Conditions,Clouds,dailyrainin,SoftwareType,DateUTC
2013-02-05 00:01:00,43.0,28.0,30.03,NE,39,0.0,0.0,56,0.00,,,0.00,,2013-02-05 07:01:00,
2013-02-05 00:11:00,43.0,28.0,30.03,NE,39,0.0,0.0,56,0.00,,,0.00,,2013-02-05 07:11:00,
2013-02-05 00:22:00,43.0,28.0,30.03,NE,39,0.0,0.0,56,0.00,,,0.00,,2013-02-05 07:22:00,
2013-02-05 00:31:00,42.0,27.0,30.03,NE,39,0.0,0.0,55,0.00,,,0.00,,2013-02-05 07:31:00,
2013-02-05 00:41:00,42.0,27.0,30.03,NE,39,0.0,0.0,55,0.00,,,0.00,,2013-02-05 07:41:00,
2013-02-05 00:52:00,42.0,28.0,30.03,NE,39,0.0,0.0,57,0.00,,,0.00,,2013-02-05 07:52:00,
2013-02-05 01:01:00,41.0,28.0,30.03,NE,39,0.0,0.0,59,0.00,,,0.00,,2013-02-05 08:01:00,
2013-02-05 01:11:00,41.0,28.0,30.03,NE,39,0.0,0.0,59,0.00,,,0.00,,2013-02-05 08:11:00,
2013-02-05 01:21:00,41.0,28.0,30.03,NE,39,0.0,0.0,59,0.00,,,0.00,,2013-02-05 08:21:00,
2013-02-05 01:31:00,41.0,29.0,30.03,NE,39,0.0,0.0,61,0.00,,,0.00,,2013-02-05 08:31:00,
2013-02-05 01:41:00,41.0,29.0,30.03,NE,39,0.0,0.0,61,0.00,,,0.00,,2013-02-05 08:41:00,
2013-02-05 01:52:00,40.0,27.0,30.03,NE,39,0.0,0.0,60,0.00,,,0.00,,2013-02-05 08:52:00,
2013-02-05 02:02:00,39.0,26.0,30.03,NE,39,0.0,0.0,60,0.00,,,0.00,,2013-02-05 09:02:00,
2013-02-05 02:11:00,39.0,27.0,30.03,NE,39,0.0,0.0,61,0.00,,,0.00,,2013-02-05 09:11:00,
2013-02-05 02:21:00,39.0,27.0,30.03,NE,39,0.0,0.0,61,0.00,,,0.00,,2013-02-05 09:21:00,
2013-02-05 02:31:00,39.0,26.0,30.03,NE,39,0.0,0.0,59,0.00,,,0.00,,2013-02-05 09:31:00,
2013-02-05 02:42:00,39.0,26.0,30.03,NE,39,0.0,0.0,59,0.00,,,0.00,,2013-02-05 09:42:00,
2013-02-05 02:52:00,41.0,25.0,30.02,North,1,6.0,8.0,53,0.00,,,0.00,,2013-02-05 09:52:00,
2013-02-05 03:01:00,41.0,25.0,30.03,North,7,1.0,7.0,52,0.00,,,0.00,,2013-02-05 10:01:00,
2013-02-05 03:11:00,40.0,24.0,30.03,North,1,3.0,5.0,52,0.00,,,0.00,,2013-02-05 10:11:00,
2013-02-05 03:21:00,40.0,24.0,30.03,North,1,3.0,5.0,52,0.00,,,0.00,,2013-02-05 10:21:00,
2013-02-05 03:31:00,40.0,24.0,30.03,NNW,335,0.0,0.0,52,0.00,,,0.00,,2013-02-05 10:31:00,
2013-02-05 03:42:00,40.0,24.0,30.03,NNW,335,0.0,0.0,52,0.00,,,0.00,,2013-02-05 10:42:00,
2013-02-05 03:52:00,40.0,24.0,30.02,NNW,335,0.0,0.0,53,0.00,,,0.00,,2013-02-05 10:52:00,
2013-02-05 04:01:00,39.0,24.0,30.03,NW,319,0.0,3.0,55,0.00,,,0.00,,2013-02-05 11:01:00,
2013-02-05 04:11:00,39.0,24.0,30.03,NW,319,0.0,3.0,55,0.00,,,0.00,,2013-02-05 11:11:00,
2013-02-05 04:22:00,39.0,25.0,30.02,NW,319,0.0,0.0,56,0.00,,,0.00,,2013-02-05 11:22:00,
2013-02-05 04:32:00,39.0,25.0,30.02,NW,319,0.0,0.0,56,0.00,,,0.00,,2013-02-05 11:32:00,
2013-02-05 04:41:00,39.0,25.0,30.02,NW,319,0.0,0.0,56,0.00,,,0.00,,2013-02-05 11:41:00,
2013-02-05 04:52:00,38.0,24.0,30.02,NW,319,0.0,0.0,57,0.00,,,0.00,,2013-02-05 11:52:00,
2013-02-05 05:01:00,38.0,25.0,30.03,NW,319,0.0,0.0,58,0.00,,,0.00,,2013-02-05 12:01:00,
2013-02-05 05:12:00,38.0,25.0,30.03,NW,319,0.0,0.0,58,0.00,,,0.00,,2013-02-05 12:12:00,
2013-02-05 05:21:00,37.0,24.0,30.03,NW,319,0.0,0.0,58,0.00,,,0.00,,2013-02-05 12:21:00,
2013-02-05 05:32:00,37.0,24.0,30.03,NW,319,0.0,0.0,59,0.00,,,0.00,,2013-02-05 12:32:00,
2013-02-05 05:42:00,37.0,24.0,30.03,NW,319,0.0,0.0,59,0.00,,,0.00,,2013-02-05 12:42:00,
2013-02-05 05:52:00,36.0,23.0,30.03,NW,319,0.0,0.0,59,0.00,,,0.00,,2013-02-05 12:52:00,
2013-02-05 06:01:00,36.0,23.0,30.04,NW,319,0.0,0.0,60,0.00,,,0.00,,2013-02-05 13:01:00,
2013-02-05 06:12:00,36.0,23.0,30.04,NW,319,0.0,0.0,60,0.00,,,0.00,,2013-02-05 13:12:00,
2013-02-05 06:21:00,36.0,23.0,30.04,NW,319,0.0,0.0,60,0.00,,,0.00,,2013-02-05 13:21:00,
2013-02-05 06:31:00,35.0,23.0,30.04,NW,319,0.0,0.0,61,0.00,,,0.00,,2013-02-05 13:31:00,
2013-02-05 06:42:00,35.0,23.0,30.04,NW,319,0.0,0.0,61,0.00,,,0.00,,2013-02-05 13:42:00,
2013-02-05 06:52:00,35.0,24.0,30.04,NW,319,0.0,0.0,63,0.00,,,0.00,,2013-02-05 13:52:00,
2013-02-05 07:01:00,34.0,23.0,30.05,NW,319,0.0,0.0,64,0.00,,,0.00,,2013-02-05 14:01:00,
2013-02-05 07:12:00,34.0,23.0,30.05,NW,319,0.0,0.0,64,0.00,,,0.00,,2013-02-05 14:12:00,
2013-02-05 07:21:00,34.0,24.0,30.06,NW,319,0.0,0.0,66,0.00,,,0.00,,2013-02-05 14:21:00,
2013-02-05 07:31:00,34.0,24.0,30.07,NW,319,0.0,0.0,66,0.00,,,0.00,,2013-02-05 14:31:00,
2013-02-05 07:42:00,34.0,24.0,30.07,NW,319,0.0,0.0,66,0.00,,,0.00,,2013-02-05 14:42:00,
2013-02-05 07:52:00,36.0,24.0,30.07,NW,319,0.0,0.0,61,0.00,,,0.00,,2013-02-05 14:52:00,
2013-02-05 08:02:00,38.0,23.0,30.07,NW,319,0.0,0.0,55,0.00,,,0.00,,2013-02-05 15:02:00,
2013-02-05 08:11:00,38.0,23.0,30.07,NW,319,0.0,0.0,55,0.00,,,0.00,,2013-02-05 15:11:00,
2013-02-05 08:21:00,40.0,24.0,30.08,NW,319,0.0,0.0,52,0.00,,,0.00,,2013-02-05 15:21:00,
2013-02-05 08:32:00,41.0,23.0,30.09,NW,319,0.0,0.0,49,0.00,,,0.00,,2013-02-05 15:32:00,
2013-02-05 08:41:00,41.0,23.0,30.09,NW,319,0.0,0.0,49,0.00,,,0.00,,2013-02-05 15:41:00,
2013-02-05 08:52:00,42.0,23.0,30.09,North,350,4.0,5.0,47,0.00,,,0.00,,2013-02-05 15:52:00,
2013-02-05 09:01:00,43.0,23.0,30.09,North,1,0.0,5.0,45,0.00,,,0.00,,2013-02-05 16:01:00,
2013-02-05 09:11:00,43.0,23.0,30.09,North,1,0.0,5.0,45,0.00,,,0.00,,2013-02-05 16:11:00,
2013-02-05 09:22:00,46.0,24.0,30.09,North,10,2.0,4.0,41,0.00,,,0.00,,2013-02-05 16:22:00,
2013-02-05 09:32:00,48.0,23.0,30.10,North,10,0.0,0.0,37,0.00,,,0.00,,2013-02-05 16:32:00,
2013-02-05 09:42:00,48.0,23.0,30.10,North,10,0.0,0.0,37,0.00,,,0.00,,2013-02-05 16:42:00,
2013-02-05 09:52:00,49.0,24.0,30.10,NE,53,4.0,7.0,37,0.00,,,0.00,,2013-02-05 16:52:00,
2013-02-05 10:01:00,50.0,23.0,30.10,NNE,28,3.0,7.0,34,0.00,,,0.00,,2013-02-05 17:01:00,
2013-02-05 10:11:00,50.0,23.0,30.10,NNE,28,3.0,7.0,34,0.00,,,0.00,,2013-02-05 17:11:00,
2013-02-05 10:21:00,52.0,22.0,30.10,ENE,72,4.0,9.0,31,0.00,,,0.00,,2013-02-05 17:21:00,
2013-02-05 10:32:00,54.0,22.0,30.10,North,359,5.0,7.0,29,0.00,,,0.00,,2013-02-05 17:32:00,
2013-02-05 10:42:00,54.0,22.0,30.10,North,359,5.0,7.0,29,0.00,,,0.00,,2013-02-05 17:42:00,
2013-02-05 10:52:00,54.0,22.0,30.09,NE,37,5.0,8.0,28,0.00,,,0.00,,2013-02-05 17:52:00,
2013-02-05 11:01:00,57.0,22.0,30.09,North,359,3.0,8.0,26,0.00,,,0.00,,2013-02-05 18:01:00,
2013-02-05 11:11:00,57.0,22.0,30.09,North,359,3.0,8.0,26,0.00,,,0.00,,2013-02-05 18:11:00,
2013-02-05 11:21:00,58.0,22.0,30.09,NNE,25,0.0,7.0,25,0.00,,,0.00,,2013-02-05 18:21:00,
2013-02-05 11:32:00,59.0,21.0,30.09,NW,318,5.0,8.0,23,0.00,,,0.00,,2013-02-05 18:32:00,
2013-02-05 11:42:00,59.0,21.0,30.09,NW,318,5.0,8.0,23,0.00,,,0.00,,2013-02-05 18:42:00,
2013-02-05 11:52:00,61.0,21.0,30.08,North,10,2.0,6.0,21,0.00,,,0.00,,2013-02-05 18:52:00,
2013-02-05 12:02:00,62.0,20.0,30.06,East,91,0.0,5.0,20,0.00,,,0.00,,2013-02-05 19:02:00,
2013-02-05 12:11:00,62.0,20.0,30.06,East,91,0.0,5.0,20,0.00,,,0.00,,2013-02-05 19:11:00,
2013-02-05 12:21:00,64.0,18.0,30.05,NE,56,4.0,7.0,17,0.00,,,0.00,,2013-02-05 19:21:00,
2013-02-05 12:32:00,64.0,18.0,30.04,North,11,3.0,7.0,17,0.00,,,0.00,,2013-02-05 19:32:00,
2013-02-05 12:42:00,64.0,18.0,30.04,North,11,3.0,7.0,17,0.00,,,0.00,,2013-02-05 19:42:00,
2013-02-05 12:52:00,64.0,18.0,30.04,North,8,6.0,8.0,17,0.00,,,0.00,,2013-02-05 19:52:00,
2013-02-05 13:01:00,65.0,20.0,30.03,North,356,0.0,7.0,18,0.00,,,0.00,,2013-02-05 20:01:00,
2013-02-05 13:11:00,65.0,20.0,30.03,North,356,0.0,7.0,18,0.00,,,0.00,,2013-02-05 20:11:00,
2013-02-05 13:21:00,67.0,19.0,30.01,NNW,338,4.0,6.0,16,0.00,,,0.00,,2013-02-05 20:21:00,
2013-02-05 13:32:00,67.0,19.0,30.01,NNW,338,3.0,6.0,16,0.00,,,0.00,,2013-02-05 20:32:00,
2013-02-05 13:42:00,67.0,19.0,30.01,NNW,338,3.0,6.0,16,0.00,,,0.00,,2013-02-05 20:42:00,
2013-02-05 13:52:00,67.0,19.0,30.00,NNW,339,5.0,7.0,16,0.00,,,0.00,,2013-02-05 20:52:00,
2013-02-05 14:02:00,67.0,19.0,29.98,West,270,2.0,11.0,16,0.00,,,0.00,,2013-02-05 21:02:00,
2013-02-05 14:11:00,67.0,19.0,29.98,West,270,2.0,11.0,16,0.00,,,0.00,,2013-02-05 21:11:00,
2013-02-05 14:22:00,68.0,20.0,29.98,NE,35,1.0,4.0,16,0.00,,,0.00,,2013-02-05 21:22:00,
2013-02-05 14:32:00,68.0,20.0,29.98,NW,318,2.0,6.0,16,0.00,,,0.00,,2013-02-05 21:32:00,
2013-02-05 14:42:00,68.0,20.0,29.98,NW,318,2.0,6.0,16,0.00,,,0.00,,2013-02-05 21:42:00,
2013-02-05 14:52:00,68.0,20.0,29.97,NNW,333,4.0,6.0,16,0.00,,,0.00,,2013-02-05 21:52:00,
2013-02-05 15:01:00,69.0,19.0,29.97,NE,53,1.0,5.0,15,0.00,,,0.00,,2013-02-05 22:01:00,
2013-02-05 15:11:00,69.0,19.0,29.97,NE,53,1.0,5.0,15,0.00,,,0.00,,2013-02-05 22:11:00,
2013-02-05 15:21:00,69.0,19.0,29.97,NE,51,2.0,7.0,15,0.00,,,0.00,,2013-02-05 22:21:00,
2013-02-05 15:32:00,70.0,20.0,29.96,East,94,0.0,4.0,15,0.00,,,0.00,,2013-02-05 22:32:00,
2013-02-05 15:42:00,70.0,20.0,29.96,East,94,0.0,4.0,15,0.00,,,0.00,,2013-02-05 22:42:00,
2013-02-05 15:52:00,69.0,21.0,29.97,SSW,210,3.0,8.0,16,0.00,,,0.00,,2013-02-05 22:52:00,
2013-02-05 16:02:00,69.0,19.0,29.96,WSW,255,0.0,3.0,15,0.00,,,0.00,,2013-02-05 23:02:00,
2013-02-05 16:11:00,69.0,19.0,29.96,WSW,255,0.0,3.0,15,0.00,,,0.00,,2013-02-05 23:11:00,
2013-02-05 16:21:00,69.0,21.0,29.96,NNE,21,4.0,8.0,16,0.00,,,0.00,,2013-02-05 23:21:00,
2013-02-05 16:32:00,70.0,20.0,29.96,North,6,0.0,0.0,15,0.00,,,0.00,,2013-02-05 23:32:00,
2013-02-05 16:42:00,70.0,20.0,29.96,North,6,0.0,0.0,15,0.00,,,0.00,,2013-02-05 23:42:00,
2013-02-05 16:52:00,70.0,20.0,29.96,West,260,2.0,5.0,15,0.00,,,0.00,,2013-02-05 23:52:00,
2013-02-05 17:02:00,69.0,19.0,29.96,West,280,0.0,0.0,15,0.00,,,0.00,,2013-02-06 00:02:00,
2013-02-05 17:11:00,69.0,19.0,29.96,West,280,0.0,0.0,15,0.00,,,0.00,,2013-02-06 00:11:00,
2013-02-05 17:21:00,69.0,19.0,29.96,West,280,0.0,0.0,15,0.00,,,0.00,,2013-02-06 00:21:00,
2013-02-05 17:32:00,69.0,19.0,29.96,West,280,0.0,0.0,15,0.00,,,0.00,,2013-02-06 00:32:00,
2013-02-05 17:42:00,69.0,19.0,29.96,West,280,0.0,0.0,15,0.00,,,0.00,,2013-02-06 00:42:00,
2013-02-05 17:52:00,67.0,21.0,29.96,West,280,0.0,0.0,17,0.00,,,0.00,,2013-02-06 00:52:00,
2013-02-05 18:02:00,65.0,22.0,29.96,West,280,0.0,0.0,19,0.00,,,0.00,,2013-02-06 01:02:00,
2013-02-05 18:11:00,65.0,22.0,29.96,West,280,0.0,0.0,19,0.00,,,0.00,,2013-02-06 01:11:00,
2013-02-05 18:22:00,64.0,23.0,29.97,West,280,0.0,0.0,21,0.00,,,0.00,,2013-02-06 01:22:00,
2013-02-05 18:32:00,62.0,24.0,29.97,West,280,0.0,0.0,23,0.00,,,0.00,,2013-02-06 01:32:00,
2013-02-05 18:42:00,62.0,24.0,29.97,West,280,0.0,0.0,23,0.00,,,0.00,,2013-02-06 01:42:00,
2013-02-05 18:53:00,61.0,25.0,29.98,West,280,0.0,0.0,25,0.00,,,0.00,,2013-02-06 01:53:00,
2013-02-05 19:01:00,60.0,26.0,29.98,West,280,0.0,0.0,27,0.00,,,0.00,,2013-02-06 02:01:00,
2013-02-05 19:11:00,60.0,26.0,29.98,West,280,0.0,0.0,27,0.00,,,0.00,,2013-02-06 02:11:00,
2013-02-05 19:22:00,58.0,26.0,29.98,West,280,0.0,0.0,29,0.00,,,0.00,,2013-02-06 02:22:00,
2013-02-05 19:32:00,56.0,26.0,29.98,West,280,0.0,0.0,31,0.00,,,0.00,,2013-02-06 02:32:00,
2013-02-05 19:42:00,56.0,26.0,29.98,West,280,0.0,0.0,31,0.00,,,0.00,,2013-02-06 02:42:00,
2013-02-05 19:52:00,54.0,26.0,29.98,West,280,0.0,0.0,33,0.00,,,0.00,,2013-02-06 02:52:00,
2013-02-05 20:02:00,53.0,26.0,29.98,West,280,0.0,0.0,35,0.00,,,0.00,,2013-02-06 03:02:00,
2013-02-05 20:12:00,53.0,26.0,29.98,West,280,0.0,0.0,35,0.00,,,0.00,,2013-02-06 03:12:00,
2013-02-05 20:21:00,52.0,26.0,29.99,West,280,0.0,0.0,36,0.00,,,0.00,,2013-02-06 03:21:00,
2013-02-05 20:32:00,51.0,26.0,30.00,West,280,0.0,0.0,37,0.00,,,0.00,,2013-02-06 03:32:00,
2013-02-05 20:42:00,51.0,26.0,30.00,West,280,0.0,0.0,37,0.00,,,0.00,,2013-02-06 03:42:00,
2013-02-05 20:52:00,52.0,27.0,30.00,West,280,0.0,0.0,37,0.00,,,0.00,,2013-02-06 03:52:00,
2013-02-05 21:02:00,52.0,26.0,30.00,West,280,0.0,0.0,36,0.00,,,0.00,,2013-02-06 04:02:00,
2013-02-05 21:11:00,52.0,26.0,30.00,West,280,0.0,0.0,36,0.00,,,0.00,,2013-02-06 04:11:00,
2013-02-05 21:21:00,51.0,26.0,30.00,West,280,0.0,0.0,37,0.00,,,0.00,,2013-02-06 04:21:00,
2013-02-05 21:31:00,50.0,26.0,30.00,West,280,0.0,0.0,39,0.00,,,0.00,,2013-02-06 04:31:00,
2013-02-05 21:42:00,50.0,26.0,30.00,West,280,0.0,0.0,39,0.00,,,0.00,,2013-02-06 04:42:00,
2013-02-05 21:51:00,49.0,26.0,30.01,WSW,243,2.0,7.0,40,0.00,,,0.00,,2013-02-06 04:51:00,
2013-02-05 22:01:00,49.0,25.0,30.00,SW,229,0.0,0.0,39,0.00,,,0.00,,2013-02-06 05:01:00,
2013-02-05 22:12:00,49.0,25.0,30.00,SW,229,0.0,0.0,39,0.00,,,0.00,,2013-02-06 05:12:00,
2013-02-05 22:22:00,49.0,25.0,30.01,SW,229,0.0,0.0,39,0.00,,,0.00,,2013-02-06 05:22:00,
2013-02-05 22:31:00,48.0,25.0,30.01,SW,229,0.0,0.0,40,0.00,,,0.00,,2013-02-06 05:31:00,
2013-02-05 22:41:00,48.0,25.0,30.01,SW,229,0.0,0.0,40,0.00,,,0.00,,2013-02-06 05:41:00,
2013-02-05 22:52:00,47.0,25.0,30.01,SW,229,0.0,0.0,42,0.00,,,0.00,,2013-02-06 05:52:00,
2013-02-05 23:01:00,47.0,25.0,30.01,SW,229,0.0,0.0,42,0.00,,,0.00,,2013-02-06 06:01:00,
2013-02-05 23:11:00,47.0,25.0,30.01,SW,229,0.0,0.0,42,0.00,,,0.00,,2013-02-06 06:11:00,
2013-02-05 23:21:00,45.0,25.0,30.00,SW,229,0.0,0.0,46,0.00,,,0.00,,2013-02-06 06:21:00,
2013-02-05 23:31:00,45.0,25.0,30.01,SW,229,0.0,0.0,45,0.00,,,0.00,,2013-02-06 06:31:00,
2013-02-05 23:42:00,45.0,25.0,30.01,SW,229,0.0,0.0,45,0.00,,,0.00,,2013-02-06 06:42:00,
2013-02-05 23:52:00,44.0,25.0,30.00,SW,229,0.0,0.0,46,0.00,,,0.00,,2013-02-06 06:52:00,